createdAt,value
2023-02-23T05:00:33.543Z,0.00
2023-02-23T05:01:33.543Z,0.00
2023-02-23T05:02:33.468Z,0.00
2023-02-23T05:03:33.454Z,0.00
2023-02-23T05:04:33.477Z,0.00
2023-02-23T05:05:33.445Z,0.00
2023-02-23T05:06:33.437Z,0.00
2023-02-23T05:07:33.411Z,0.00
2023-02-23T05:08:33.402Z,0.00
2023-02-23T05:09:33.417Z,0.00
2023-02-23T05:10:33.390Z,0.00
2023-02-23T05:11:38.445Z,0.00
2023-02-23T05:12:33.369Z,0.00
2023-02-23T05:13:33.358Z,0.00
2023-02-23T05:14:33.367Z,0.00
2023-02-23T05:15:33.371Z,0.00
2023-02-23T05:16:33.348Z,0.00
2023-02-23T05:17:33.305Z,0.00
2023-02-23T05:18:33.297Z,0.00
2023-02-23T05:19:33.300Z,0.00
2023-02-23T05:20:33.290Z,0.00
2023-02-23T05:21:33.268Z,0.00
2023-02-23T05:22:38.267Z,0.00
2023-02-23T05:23:33.235Z,0.00
2023-02-23T05:24:33.232Z,0.00
2023-02-23T05:25:33.213Z,0.00
2023-02-23T05:26:33.227Z,0.00
2023-02-23T05:27:33.199Z,0.00
2023-02-23T05:28:33.182Z,0.00
2023-02-23T05:29:33.173Z,0.00
2023-02-23T05:30:33.267Z,0.00
2023-02-23T05:31:33.193Z,0.00
2023-02-23T05:32:33.225Z,0.00
2023-02-23T05:33:38.154Z,0.00
2023-02-23T05:34:33.113Z,0.00
2023-02-23T05:35:33.103Z,0.00
2023-02-23T05:36:33.092Z,0.00
2023-02-23T05:37:33.102Z,0.00
2023-02-23T05:38:33.098Z,0.00
2023-02-23T05:39:33.053Z,0.00
2023-02-23T05:40:33.051Z,0.00
2023-02-23T05:41:33.037Z,0.00
2023-02-23T05:42:33.034Z,0.00
2023-02-23T05:43:33.015Z,0.00
2023-02-23T05:44:38.036Z,0.00
2023-02-23T05:45:32.985Z,0.00
2023-02-23T05:46:33.028Z,0.00
2023-02-23T05:47:32.981Z,0.00
2023-02-23T05:48:32.977Z,0.00
2023-02-23T05:49:32.956Z,0.00
2023-02-23T05:50:32.932Z,0.00
2023-02-23T05:51:32.925Z,0.00
2023-02-23T05:52:32.945Z,0.00
2023-02-23T05:53:32.902Z,0.00
2023-02-23T05:54:32.886Z,0.00
2023-02-23T05:55:37.894Z,0.00
2023-02-23T05:56:32.930Z,0.00
2023-02-23T05:57:32.866Z,0.00
2023-02-23T05:58:32.844Z,4.00
2023-02-23T05:59:32.834Z,4.00
2023-02-23T06:00:32.825Z,0.00
2023-02-23T06:01:32.813Z,4.00
2023-02-23T06:02:32.849Z,8.00
2023-02-23T06:03:32.819Z,4.00
2023-02-23T06:04:32.813Z,4.00
2023-02-23T06:05:32.765Z,8.00
2023-02-23T06:06:37.785Z,8.00
2023-02-23T06:07:32.748Z,12.00
2023-02-23T06:08:32.741Z,12.00
2023-02-23T06:09:32.719Z,12.00
2023-02-23T06:10:32.709Z,16.00
2023-02-23T06:11:32.699Z,16.00
2023-02-23T06:12:32.687Z,20.00
2023-02-23T06:13:32.690Z,20.00
2023-02-23T06:14:32.671Z,24.00
2023-02-23T06:15:32.654Z,28.00
2023-02-23T06:16:32.857Z,28.00
2023-02-23T06:17:37.653Z,32.00
2023-02-23T06:18:32.632Z,44.00
2023-02-23T06:19:32.608Z,48.00
2023-02-23T06:20:32.753Z,60.00
2023-02-23T06:21:32.615Z,68.00
2023-02-23T06:22:32.578Z,72.00
2023-02-23T06:23:32.589Z,72.00
2023-02-23T06:24:32.552Z,76.00
2023-02-23T06:25:32.542Z,88.00
2023-02-23T06:26:32.608Z,100.00
2023-02-23T06:27:32.519Z,112.00
2023-02-23T06:28:37.542Z,120.00
2023-02-23T06:29:32.493Z,124.00
2023-02-23T06:30:32.523Z,120.00
2023-02-23T06:31:32.519Z,120.00
2023-02-23T06:32:32.555Z,124.00
2023-02-23T06:33:32.460Z,132.00
2023-02-23T06:34:32.441Z,148.00
2023-02-23T06:35:32.427Z,164.00
2023-02-23T06:36:32.447Z,184.00
2023-02-23T06:37:32.415Z,192.00
2023-02-23T06:38:32.411Z,216.00
2023-02-23T06:39:37.422Z,236.00
2023-02-23T06:40:32.373Z,240.00
2023-02-23T06:41:32.365Z,268.00
2023-02-23T06:42:32.350Z,308.00
2023-02-23T06:43:32.352Z,344.00
2023-02-23T06:44:32.329Z,388.00
2023-02-23T06:45:32.324Z,436.00
2023-02-23T06:46:32.331Z,472.00
2023-02-23T06:47:32.296Z,508.00
2023-02-23T06:48:32.298Z,544.00
2023-02-23T06:49:32.276Z,580.00
2023-02-23T06:50:37.292Z,596.00
2023-02-23T06:51:32.254Z,620.00
2023-02-23T06:52:32.268Z,644.00
2023-02-23T06:53:32.243Z,676.00
2023-02-23T06:54:32.224Z,720.00
2023-02-23T06:55:32.209Z,784.00
2023-02-23T06:56:32.220Z,812.00
2023-02-23T06:57:32.186Z,832.00
2023-02-23T06:58:32.201Z,836.00
2023-02-23T06:59:32.164Z,832.00
2023-02-23T07:00:32.155Z,796.00
2023-02-23T07:01:37.187Z,744.00
2023-02-23T07:02:32.130Z,728.00
2023-02-23T07:03:32.117Z,728.00
2023-02-23T07:04:32.125Z,704.00
2023-02-23T07:05:32.094Z,716.00
2023-02-23T07:06:32.083Z,748.00
2023-02-23T07:07:32.072Z,788.00
2023-02-23T07:08:32.089Z,820.00
2023-02-23T07:09:32.077Z,916.00
2023-02-23T07:10:32.042Z,1036.00
2023-02-23T07:11:32.026Z,1080.00
2023-02-23T07:12:37.044Z,1028.00
2023-02-23T07:13:32.003Z,944.00
2023-02-23T07:14:32.006Z,820.00
2023-02-23T07:15:31.985Z,772.00
2023-02-23T07:16:31.987Z,736.00
2023-02-23T07:17:31.970Z,692.00
2023-02-23T07:18:31.949Z,684.00
2023-02-23T07:19:31.964Z,696.00
2023-02-23T07:20:31.926Z,692.00
2023-02-23T07:21:31.913Z,716.00
2023-02-23T07:22:31.903Z,732.00
2023-02-23T07:23:36.958Z,768.00
2023-02-23T07:24:31.894Z,820.00
2023-02-23T07:25:31.868Z,892.00
2023-02-23T07:26:31.861Z,960.00
2023-02-23T07:27:31.846Z,1056.00
2023-02-23T07:28:31.840Z,1096.00
2023-02-23T07:29:31.838Z,1144.00
2023-02-23T07:30:31.846Z,1208.00
2023-02-23T07:31:31.828Z,1288.00
2023-02-23T07:32:31.977Z,1360.00
2023-02-23T07:33:31.780Z,1444.00
2023-02-23T07:34:36.808Z,1468.00
2023-02-23T07:35:31.764Z,1656.00
2023-02-23T07:36:31.751Z,2000.00
2023-02-23T07:37:31.748Z,2184.00
2023-02-23T07:38:31.728Z,2148.00
2023-02-23T07:39:31.754Z,2116.00
2023-02-23T07:40:31.713Z,1980.00
2023-02-23T07:41:31.701Z,1896.00
2023-02-23T07:42:31.684Z,1956.00
2023-02-23T07:43:31.671Z,2028.00
2023-02-23T07:44:31.672Z,2184.00
2023-02-23T07:45:36.711Z,2176.00
2023-02-23T07:46:31.649Z,2152.00
2023-02-23T07:47:31.631Z,2136.00
2023-02-23T07:48:31.617Z,2220.00
2023-02-23T07:49:31.616Z,2292.00
2023-02-23T07:50:31.610Z,2336.00
2023-02-23T07:51:31.586Z,2516.00
2023-02-23T07:52:31.577Z,2804.00
2023-02-23T07:53:31.567Z,3188.00
2023-02-23T07:54:31.600Z,3660.00
2023-02-23T07:55:31.612Z,3928.00
2023-02-23T07:56:36.552Z,3636.00
2023-02-23T07:57:31.531Z,3296.00
2023-02-23T07:58:31.516Z,2736.00
2023-02-23T07:59:31.506Z,2576.00
2023-02-23T08:00:31.486Z,2800.00
2023-02-23T08:01:31.523Z,3044.00
2023-02-23T08:02:31.480Z,3216.00
2023-02-23T08:03:31.450Z,3236.00
2023-02-23T08:04:31.473Z,3212.00
2023-02-23T08:05:31.432Z,3072.00
2023-02-23T08:06:31.417Z,2812.00
2023-02-23T08:07:36.429Z,2536.00
2023-02-23T08:08:31.398Z,2428.00
2023-02-23T08:09:31.396Z,2492.00
2023-02-23T08:10:31.372Z,2628.00
2023-02-23T08:11:31.384Z,2800.00
2023-02-23T08:12:31.362Z,2936.00
2023-02-23T08:13:31.342Z,2824.00
2023-02-23T08:14:31.347Z,2608.00
2023-02-23T08:15:31.320Z,2588.00
2023-02-23T08:16:31.331Z,2772.00
2023-02-23T08:17:31.292Z,3044.00
2023-02-23T08:18:36.408Z,3440.00
2023-02-23T08:19:31.288Z,3724.00
2023-02-23T08:20:31.264Z,3956.00
2023-02-23T08:21:31.249Z,4084.00
2023-02-23T08:22:40.488Z,4000.00
2023-02-23T08:23:32.230Z,3968.00
2023-02-23T08:24:31.230Z,3904.00
2023-02-23T08:25:31.205Z,3696.00
2023-02-23T08:26:31.191Z,3620.00
2023-02-23T08:27:31.204Z,3632.00
2023-02-23T08:28:31.175Z,3568.00
2023-02-23T08:29:36.197Z,3628.00
2023-02-23T08:30:31.207Z,3964.00
2023-02-23T08:31:31.236Z,4388.00
2023-02-23T08:32:31.150Z,4496.00
2023-02-23T08:33:31.135Z,4496.00
2023-02-23T08:34:31.109Z,4536.00
2023-02-23T08:35:31.089Z,4520.00
2023-02-23T08:36:31.078Z,4652.00
2023-02-23T08:37:31.076Z,4756.00
2023-02-23T08:38:31.058Z,4876.00
2023-02-23T08:39:31.056Z,4940.00
2023-02-23T08:40:36.100Z,5400.00
2023-02-23T08:41:31.027Z,5856.00
2023-02-23T08:42:31.014Z,6352.00
2023-02-23T08:43:31.039Z,6660.00
2023-02-23T08:44:31.000Z,6968.00
2023-02-23T08:45:30.977Z,7088.00
2023-02-23T08:46:31.039Z,6788.00
2023-02-23T08:47:30.968Z,6408.00
2023-02-23T08:48:30.941Z,6992.00
2023-02-23T08:49:30.944Z,6528.00
2023-02-23T08:50:30.918Z,6652.00
2023-02-23T08:51:35.930Z,6844.00
2023-02-23T08:52:30.894Z,7192.00
2023-02-23T08:53:30.891Z,7172.00
2023-02-23T08:54:30.879Z,7196.00
2023-02-23T08:55:30.882Z,7268.00
2023-02-23T08:56:30.849Z,7172.00
2023-02-23T08:57:30.839Z,6908.00
2023-02-23T08:58:30.831Z,6408.00
2023-02-23T08:59:30.863Z,7252.00
2023-02-23T09:00:30.817Z,8024.00
2023-02-23T09:01:30.856Z,9140.00
2023-02-23T09:02:35.804Z,9552.00
2023-02-23T09:03:30.869Z,9392.00
2023-02-23T09:04:30.759Z,8440.00
2023-02-23T09:05:30.807Z,8752.00
2023-02-23T09:06:30.742Z,9376.00
2023-02-23T09:07:30.729Z,9348.00
2023-02-23T09:08:30.715Z,9796.00
2023-02-23T09:09:30.706Z,10560.00
2023-02-23T09:10:30.712Z,11108.00
2023-02-23T09:11:30.682Z,11368.00
2023-02-23T09:12:30.683Z,11244.00
2023-02-23T09:13:35.682Z,10568.00
2023-02-23T09:14:30.646Z,9268.00
2023-02-23T09:15:30.719Z,9160.00
2023-02-23T09:16:30.625Z,9520.00
2023-02-23T09:17:30.617Z,10180.00
2023-02-23T09:18:30.606Z,10432.00
2023-02-23T09:19:30.592Z,10524.00
2023-02-23T09:20:30.594Z,10176.00
2023-02-23T09:21:30.571Z,10180.00
2023-02-23T09:22:30.557Z,9912.00
2023-02-23T09:23:30.565Z,10044.00
2023-02-23T09:24:35.557Z,10140.00
2023-02-23T09:25:30.538Z,9644.00
2023-02-23T09:26:30.512Z,9448.00
2023-02-23T09:27:30.501Z,9392.00
2023-02-23T09:28:31.179Z,10116.00
2023-02-23T09:29:30.486Z,9928.00
2023-02-23T09:30:30.543Z,8384.00
2023-02-23T09:31:30.544Z,7736.00
2023-02-23T09:32:30.733Z,6820.00
2023-02-23T09:33:30.439Z,5984.00
2023-02-23T09:34:30.443Z,6408.00
2023-02-23T09:35:35.450Z,6996.00
2023-02-23T09:36:30.407Z,7896.00
2023-02-23T09:37:30.531Z,8084.00
2023-02-23T09:38:30.405Z,5680.00
2023-02-23T09:39:38.056Z,5968.00
2023-02-23T09:40:31.366Z,6880.00
2023-02-23T09:41:30.349Z,7104.00
2023-02-23T09:42:30.334Z,8020.00
2023-02-23T09:43:30.326Z,8604.00
2023-02-23T09:44:30.312Z,8408.00
2023-02-23T09:45:30.312Z,7256.00
2023-02-23T09:46:35.333Z,6828.00
2023-02-23T09:47:30.293Z,7676.00
2023-02-23T09:48:30.269Z,9584.00
2023-02-23T09:49:30.262Z,10312.00
2023-02-23T09:50:30.259Z,7956.00
2023-02-23T09:51:30.244Z,8152.00
2023-02-23T09:52:30.255Z,8912.00
2023-02-23T09:53:32.094Z,8848.00
2023-02-23T09:54:30.211Z,8184.00
2023-02-23T09:55:30.215Z,7488.00
2023-02-23T09:56:30.198Z,7332.00
2023-02-23T09:57:35.192Z,7228.00
2023-02-23T09:58:30.161Z,6592.00
2023-02-23T09:59:30.148Z,5880.00
2023-02-23T10:00:30.138Z,5400.00
2023-02-23T10:01:30.185Z,5068.00
2023-02-23T10:02:30.221Z,5016.00
2023-02-23T10:03:30.106Z,5272.00
2023-02-23T10:04:30.179Z,5284.00
2023-02-23T10:05:30.084Z,5144.00
2023-02-23T10:06:30.084Z,5076.00
2023-02-23T10:07:30.085Z,4972.00
2023-02-23T10:08:35.077Z,4856.00
2023-02-23T10:09:30.038Z,4724.00
2023-02-23T10:10:30.040Z,4604.00
2023-02-23T10:11:30.045Z,4648.00
2023-02-23T10:12:30.011Z,4760.00
2023-02-23T10:13:30.005Z,4844.00
2023-02-23T10:14:30.014Z,4920.00
2023-02-23T10:15:29.971Z,4724.00
2023-02-23T10:16:29.970Z,4580.00
2023-02-23T10:17:29.948Z,4604.00
2023-02-23T10:18:45.247Z,4604.00
2023-02-23T10:19:35.948Z,4636.00
2023-02-23T10:20:30.084Z,4880.00
2023-02-23T10:21:30.018Z,5224.00
2023-02-23T10:22:29.892Z,5516.00
2023-02-23T10:23:31.319Z,5520.00
2023-02-23T10:24:29.868Z,5600.00
2023-02-23T10:25:29.865Z,5796.00
2023-02-23T10:26:29.860Z,6248.00
2023-02-23T10:27:29.839Z,6216.00
2023-02-23T10:28:29.863Z,5868.00
2023-02-23T10:29:29.814Z,6640.00
2023-02-23T10:30:34.905Z,7684.00
2023-02-23T10:31:29.931Z,8092.00
2023-02-23T10:32:29.801Z,8480.00
2023-02-23T10:33:30.104Z,8836.00
2023-02-23T10:34:29.777Z,9324.00
2023-02-23T10:35:29.749Z,10068.00
2023-02-23T10:36:30.220Z,10228.00
2023-02-23T10:37:29.753Z,10408.00
2023-02-23T10:38:29.710Z,10900.00
2023-02-23T10:39:29.698Z,11576.00
2023-02-23T10:40:29.693Z,11380.00
2023-02-23T10:41:34.716Z,10620.00
2023-02-23T10:42:30.056Z,9804.00
2023-02-23T10:43:29.652Z,9300.00
2023-02-23T10:44:29.643Z,9304.00
2023-02-23T10:45:29.814Z,9072.00
2023-02-23T10:46:29.662Z,10424.00
2023-02-23T10:47:29.664Z,7988.00
2023-02-23T10:48:30.038Z,7152.00
2023-02-23T10:49:30.216Z,6564.00
2023-02-23T10:50:29.608Z,6156.00
2023-02-23T10:51:29.610Z,6248.00
2023-02-23T10:52:34.625Z,6128.00
2023-02-23T10:53:29.606Z,5936.00
2023-02-23T10:54:29.529Z,6228.00
2023-02-23T10:55:29.535Z,7024.00
2023-02-23T10:56:29.556Z,6544.00
2023-02-23T10:57:30.121Z,7164.00
2023-02-23T10:58:29.524Z,8092.00
2023-02-23T10:59:29.476Z,9592.00
2023-02-23T11:00:29.465Z,10028.00
2023-02-23T11:01:29.982Z,7840.00
2023-02-23T11:02:29.749Z,7628.00
2023-02-23T11:03:34.547Z,6372.00
2023-02-23T11:04:29.455Z,6936.00
2023-02-23T11:05:29.405Z,10772.00
2023-02-23T11:06:29.414Z,11812.00
2023-02-23T11:07:29.409Z,15832.00
2023-02-23T11:08:29.431Z,17184.00
2023-02-23T11:09:43.258Z,22304.00
2023-02-23T11:10:30.343Z,25344.00
2023-02-23T11:11:29.342Z,13968.00
2023-02-23T11:12:29.341Z,11568.00
2023-02-23T11:13:29.314Z,11544.00
2023-02-23T11:14:34.325Z,10000.00
2023-02-23T11:15:46.457Z,9444.00
2023-02-23T11:16:30.417Z,16256.00
2023-02-23T11:17:29.285Z,10008.00
2023-02-23T11:18:29.468Z,9828.00
2023-02-23T11:19:29.528Z,10836.00
2023-02-23T11:20:29.234Z,11324.00
2023-02-23T11:21:29.228Z,26272.00
2023-02-23T11:22:29.276Z,26464.00
2023-02-23T11:23:29.459Z,23808.00
2023-02-23T11:24:29.187Z,14308.00
2023-02-23T11:25:34.200Z,9684.00
2023-02-23T11:26:29.192Z,10016.00
2023-02-23T11:27:29.168Z,10540.00
2023-02-23T11:28:29.151Z,18048.00
2023-02-23T11:29:29.134Z,16416.00
2023-02-23T11:30:29.144Z,16224.00
2023-02-23T11:31:29.143Z,9456.00
2023-02-23T11:32:29.316Z,8900.00
2023-02-23T11:33:29.089Z,8572.00
2023-02-23T11:34:29.081Z,8196.00
2023-02-23T11:35:29.065Z,9236.00
2023-02-23T11:36:34.078Z,9468.00
2023-02-23T11:37:29.049Z,15360.00
2023-02-23T11:38:29.085Z,11976.00
2023-02-23T11:39:29.020Z,12020.00
2023-02-23T11:40:29.008Z,15488.00
2023-02-23T11:41:29.000Z,13124.00
2023-02-23T11:42:28.988Z,12932.00
2023-02-23T11:43:28.992Z,14728.00
2023-02-23T11:44:28.964Z,15508.00
2023-02-23T11:45:28.953Z,18400.00
2023-02-23T11:46:29.037Z,20000.00
2023-02-23T11:47:33.972Z,21728.00
2023-02-23T11:48:28.937Z,19072.00
2023-02-23T11:49:28.909Z,14480.00
2023-02-23T11:50:28.901Z,8184.00
2023-02-23T11:51:28.888Z,6068.00
2023-02-23T11:52:28.876Z,6244.00
2023-02-23T11:53:28.881Z,6764.00
2023-02-23T11:54:28.894Z,7312.00
2023-02-23T11:55:28.845Z,7900.00
2023-02-23T11:56:28.834Z,7916.00
2023-02-23T11:57:28.830Z,7660.00
2023-02-23T11:58:33.849Z,7508.00
2023-02-23T11:59:28.799Z,8152.00
2023-02-23T12:00:28.789Z,17984.00
2023-02-23T12:01:28.784Z,29792.00
2023-02-23T12:02:28.772Z,27040.00
2023-02-23T12:03:28.776Z,27232.00
2023-02-23T12:04:28.781Z,11276.00
2023-02-23T12:05:28.778Z,29216.00
2023-02-23T12:06:28.777Z,26048.00
2023-02-23T12:07:28.713Z,24544.00
2023-02-23T12:08:28.712Z,24608.00
2023-02-23T12:09:33.764Z,28352.00
2023-02-23T12:10:28.752Z,29568.00
2023-02-23T12:11:28.679Z,29856.00
2023-02-23T12:12:28.659Z,20768.00
2023-02-23T12:13:28.665Z,16064.00
2023-02-23T12:14:28.646Z,14108.00
2023-02-23T12:15:28.629Z,18368.00
2023-02-23T12:16:28.679Z,16204.00
2023-02-23T12:17:28.605Z,15508.00
2023-02-23T12:18:28.610Z,15100.00
2023-02-23T12:19:28.591Z,18048.00
2023-02-23T12:20:33.599Z,27040.00
2023-02-23T12:21:28.557Z,30944.00
2023-02-23T12:22:28.546Z,30912.00
2023-02-23T12:23:28.544Z,24736.00
2023-02-23T12:24:28.526Z,16992.00
2023-02-23T12:25:28.595Z,11380.00
2023-02-23T12:26:28.505Z,11988.00
2023-02-23T12:27:28.489Z,13352.00
2023-02-23T12:28:28.499Z,13992.00
2023-02-23T12:29:28.469Z,13748.00
2023-02-23T12:30:28.498Z,13504.00
2023-02-23T12:31:33.470Z,12532.00
2023-02-23T12:32:28.497Z,11112.00
2023-02-23T12:33:28.421Z,8496.00
2023-02-23T12:34:28.426Z,6568.00
2023-02-23T12:35:30.966Z,6124.00
2023-02-23T12:36:28.387Z,5580.00
2023-02-23T12:37:28.376Z,5168.00
2023-02-23T12:38:28.364Z,4652.00
2023-02-23T12:39:28.367Z,4552.00
2023-02-23T12:40:28.347Z,4692.00
2023-02-23T12:41:28.353Z,5124.00
2023-02-23T12:42:33.354Z,5300.00
2023-02-23T12:43:28.306Z,5100.00
2023-02-23T12:44:28.306Z,5276.00
2023-02-23T12:45:28.286Z,5580.00
2023-02-23T12:46:28.322Z,5712.00
2023-02-23T12:47:28.264Z,6076.00
2023-02-23T12:48:28.250Z,6440.00
2023-02-23T12:49:28.262Z,6976.00
2023-02-23T12:50:28.229Z,8304.00
2023-02-23T12:51:28.222Z,9500.00
2023-02-23T12:52:28.218Z,9964.00
2023-02-23T12:53:33.215Z,10240.00
2023-02-23T12:54:28.194Z,9952.00
2023-02-23T12:55:28.182Z,9508.00
2023-02-23T12:56:28.168Z,9416.00
2023-02-23T12:57:28.169Z,8932.00
2023-02-23T12:58:28.138Z,8296.00
2023-02-23T12:59:28.136Z,8272.00
2023-02-23T13:00:28.116Z,7924.00
2023-02-23T13:01:28.137Z,7760.00
2023-02-23T13:02:28.130Z,7792.00
2023-02-23T13:03:28.088Z,7848.00
2023-02-23T13:04:33.110Z,7884.00
2023-02-23T13:05:28.078Z,7816.00
2023-02-23T13:06:28.053Z,7976.00
2023-02-23T13:07:28.049Z,8108.00
2023-02-23T13:08:28.035Z,7904.00
2023-02-23T13:09:28.019Z,6988.00
2023-02-23T13:10:28.020Z,5916.00
2023-02-23T13:11:27.999Z,5072.00
2023-02-23T13:12:28.046Z,4520.00
2023-02-23T13:13:27.996Z,4280.00
2023-02-23T13:14:27.966Z,4472.00
2023-02-23T13:15:33.019Z,4868.00
2023-02-23T13:16:28.023Z,5080.00
2023-02-23T13:17:27.934Z,4860.00
2023-02-23T13:18:27.923Z,4364.00
2023-02-23T13:19:27.919Z,3796.00
2023-02-23T13:20:27.913Z,3088.00
2023-02-23T13:21:27.886Z,2548.00
2023-02-23T13:22:27.878Z,2316.00
2023-02-23T13:23:27.865Z,2352.00
2023-02-23T13:24:27.858Z,2512.00
2023-02-23T13:25:27.857Z,2832.00
2023-02-23T13:26:32.862Z,3160.00
2023-02-23T13:27:27.835Z,3264.00
2023-02-23T13:28:27.810Z,2952.00
2023-02-23T13:29:27.847Z,2664.00
2023-02-23T13:30:27.928Z,2628.00
2023-02-23T13:31:28.059Z,2812.00
2023-02-23T13:32:27.801Z,3164.00
2023-02-23T13:33:38.416Z,3384.00
2023-02-23T13:34:28.746Z,3340.00
2023-02-23T13:35:27.742Z,3140.00
2023-02-23T13:36:27.725Z,2812.00
2023-02-23T13:37:32.736Z,2636.00
2023-02-23T13:38:27.698Z,2600.00
2023-02-23T13:39:27.685Z,2708.00
2023-02-23T13:40:27.686Z,2944.00
2023-02-23T13:41:27.662Z,3296.00
2023-02-23T13:42:27.652Z,3588.00
2023-02-23T13:43:30.008Z,3796.00
2023-02-23T13:44:27.631Z,3992.00
2023-02-23T13:45:27.713Z,4160.00
2023-02-23T13:46:27.795Z,4140.00
2023-02-23T13:47:27.620Z,4092.00
2023-02-23T13:48:32.605Z,4104.00
2023-02-23T13:49:27.570Z,4204.00
2023-02-23T13:50:27.562Z,4328.00
2023-02-23T13:51:27.570Z,4464.00
2023-02-23T13:52:27.539Z,4660.00
2023-02-23T13:53:27.526Z,4852.00
2023-02-23T13:54:27.517Z,4996.00
2023-02-23T13:55:32.656Z,5072.00
2023-02-23T13:56:28.509Z,5004.00
2023-02-23T13:57:27.485Z,4936.00
2023-02-23T13:58:27.476Z,4940.00
2023-02-23T13:59:32.548Z,5000.00
2023-02-23T14:00:27.450Z,4968.00
2023-02-23T14:01:27.656Z,4876.00
2023-02-23T14:02:27.574Z,4776.00
2023-02-23T14:03:27.494Z,4688.00
2023-02-23T14:04:27.445Z,4628.00
2023-02-23T14:05:27.410Z,4552.00
2023-02-23T14:06:27.424Z,4472.00
2023-02-23T14:07:27.409Z,4444.00
2023-02-23T14:08:27.361Z,4472.00
2023-02-23T14:09:27.375Z,4588.00
2023-02-23T14:10:32.363Z,4728.00
2023-02-23T14:11:27.340Z,4844.00
2023-02-23T14:12:27.339Z,4956.00
2023-02-23T14:13:27.322Z,5072.00
2023-02-23T14:14:27.299Z,5152.00
2023-02-23T14:15:27.317Z,5112.00
2023-02-23T14:16:27.404Z,4980.00
2023-02-23T14:17:27.343Z,4800.00
2023-02-23T14:18:27.253Z,4496.00
2023-02-23T14:19:27.239Z,4292.00
2023-02-23T14:20:29.975Z,4236.00
2023-02-23T14:21:32.260Z,4260.00
2023-02-23T14:22:27.209Z,4228.00
2023-02-23T14:23:27.196Z,4188.00
2023-02-23T14:24:27.187Z,4176.00
2023-02-23T14:25:27.170Z,4140.00
2023-02-23T14:26:27.183Z,4044.00
2023-02-23T14:27:40.263Z,3984.00
2023-02-23T14:28:28.141Z,3956.00
2023-02-23T14:29:27.138Z,3876.00
2023-02-23T14:30:27.208Z,3808.00
2023-02-23T14:31:27.243Z,3688.00
2023-02-23T14:32:32.299Z,3600.00
2023-02-23T14:33:27.086Z,3504.00
2023-02-23T14:34:27.077Z,3456.00
2023-02-23T14:35:27.077Z,3448.00
2023-02-23T14:36:27.075Z,3444.00
2023-02-23T14:37:27.088Z,3412.00
2023-02-23T14:38:29.962Z,3248.00
2023-02-23T14:39:28.024Z,3080.00
2023-02-23T14:40:27.015Z,2840.00
2023-02-23T14:41:27.004Z,2568.00
2023-02-23T14:42:26.997Z,2424.00
2023-02-23T14:43:31.990Z,2500.00
2023-02-23T14:44:30.106Z,2588.00
2023-02-23T14:45:26.976Z,2612.00
2023-02-23T14:46:26.970Z,2564.00
2023-02-23T14:47:26.938Z,2604.00
2023-02-23T14:48:27.043Z,2716.00
2023-02-23T14:49:26.899Z,2808.00
2023-02-23T14:50:26.890Z,2884.00
2023-02-23T14:51:26.875Z,2896.00
2023-02-23T14:52:26.880Z,2960.00
2023-02-23T14:53:26.851Z,2984.00
2023-02-23T14:54:31.872Z,2996.00
2023-02-23T14:55:28.920Z,2972.00
2023-02-23T14:56:46.231Z,2932.00
2023-02-23T14:57:27.817Z,2896.00
2023-02-23T14:58:26.795Z,2892.00
2023-02-23T14:59:26.790Z,2940.00
2023-02-23T15:00:26.775Z,2952.00
2023-02-23T15:01:26.772Z,2980.00
2023-02-23T15:02:26.759Z,2988.00
2023-02-23T15:03:26.738Z,3032.00
2023-02-23T15:04:26.977Z,3008.00
2023-02-23T15:05:31.753Z,2956.00
2023-02-23T15:06:26.729Z,2876.00
2023-02-23T15:07:26.711Z,2764.00
2023-02-23T15:08:26.685Z,2704.00
2023-02-23T15:09:26.667Z,2632.00
2023-02-23T15:10:26.654Z,2532.00
2023-02-23T15:11:26.681Z,2464.00
2023-02-23T15:12:26.636Z,2468.00
2023-02-23T15:13:28.779Z,2444.00
2023-02-23T15:14:28.450Z,2400.00
2023-02-23T15:15:26.631Z,2372.00
2023-02-23T15:16:31.718Z,2320.00
2023-02-23T15:17:26.605Z,2240.00
2023-02-23T15:18:27.071Z,2112.00
2023-02-23T15:19:26.554Z,2048.00
2023-02-23T15:20:26.563Z,2036.00
2023-02-23T15:21:26.532Z,2064.00
2023-02-23T15:22:26.543Z,2072.00
2023-02-23T15:23:26.557Z,2056.00
2023-02-23T15:24:26.497Z,2016.00
2023-02-23T15:25:26.488Z,1908.00
2023-02-23T15:26:26.488Z,1796.00
2023-02-23T15:27:31.493Z,1728.00
2023-02-23T15:28:26.469Z,1668.00
2023-02-23T15:29:26.459Z,1612.00
2023-02-23T15:30:26.431Z,1568.00
2023-02-23T15:31:26.510Z,1544.00
2023-02-23T15:32:26.563Z,1528.00
2023-02-23T15:33:26.417Z,1476.00
2023-02-23T15:34:26.455Z,1408.00
2023-02-23T15:35:26.380Z,1388.00
2023-02-23T15:36:26.383Z,1376.00
2023-02-23T15:37:26.363Z,1344.00
2023-02-23T15:38:43.086Z,1312.00
2023-02-23T15:39:27.330Z,1280.00
2023-02-23T15:40:26.317Z,1232.00
2023-02-23T15:41:26.310Z,1188.00
2023-02-23T15:42:26.294Z,1172.00
2023-02-23T15:43:26.302Z,1172.00
2023-02-23T15:44:35.052Z,1180.00
2023-02-23T15:45:27.314Z,1184.00
2023-02-23T15:46:26.254Z,1184.00
2023-02-23T15:47:26.254Z,1196.00
2023-02-23T15:48:26.260Z,1208.00
2023-02-23T15:49:31.275Z,1200.00
2023-02-23T15:50:36.233Z,1196.00
2023-02-23T15:51:27.218Z,1192.00
2023-02-23T15:52:26.209Z,1196.00
2023-02-23T15:53:26.191Z,1212.00
2023-02-23T15:54:26.164Z,1232.00
2023-02-23T15:55:26.161Z,1232.00
2023-02-23T15:56:26.145Z,1232.00
2023-02-23T15:57:26.141Z,1240.00
2023-02-23T15:58:26.180Z,1244.00
2023-02-23T15:59:26.170Z,1248.00
2023-02-23T16:00:31.123Z,1240.00
2023-02-23T16:01:26.104Z,1248.00
2023-02-23T16:02:26.101Z,1264.00
2023-02-23T16:03:26.119Z,1252.00
2023-02-23T16:04:26.113Z,1240.00
2023-02-23T16:05:30.356Z,1228.00
2023-02-23T16:06:27.084Z,1212.00
2023-02-23T16:07:26.042Z,1192.00
2023-02-23T16:08:26.079Z,1160.00
2023-02-23T16:09:26.092Z,1128.00
2023-02-23T16:10:26.019Z,1052.00
2023-02-23T16:11:31.043Z,964.00
2023-02-23T16:12:26.008Z,920.00
2023-02-23T16:13:25.980Z,904.00
2023-02-23T16:14:26.056Z,868.00
2023-02-23T16:15:25.949Z,812.00
2023-02-23T16:16:25.959Z,800.00
2023-02-23T16:17:25.933Z,800.00
2023-02-23T16:18:25.922Z,792.00
2023-02-23T16:19:25.973Z,776.00
2023-02-23T16:20:25.897Z,760.00
2023-02-23T16:21:25.898Z,740.00
2023-02-23T16:22:30.911Z,708.00
2023-02-23T16:23:33.313Z,676.00
2023-02-23T16:24:26.943Z,644.00
2023-02-23T16:25:25.841Z,612.00
2023-02-23T16:26:25.828Z,572.00
2023-02-23T16:27:25.837Z,536.00
2023-02-23T16:28:25.796Z,504.00
2023-02-23T16:29:25.798Z,476.00
2023-02-23T16:30:25.784Z,444.00
2023-02-23T16:31:26.003Z,400.00
2023-02-23T16:32:25.938Z,348.00
2023-02-23T16:33:30.812Z,296.00
2023-02-23T16:34:25.879Z,252.00
2023-02-23T16:35:25.768Z,216.00
2023-02-23T16:36:25.878Z,184.00
2023-02-23T16:37:25.759Z,156.00
2023-02-23T16:38:26.277Z,136.00
2023-02-23T16:39:26.305Z,128.00
2023-02-23T16:40:25.800Z,124.00
2023-02-23T16:41:25.669Z,120.00
2023-02-23T16:42:25.832Z,112.00
2023-02-23T16:43:25.665Z,100.00
2023-02-23T16:44:42.891Z,92.00
2023-02-23T16:45:26.644Z,88.00
2023-02-23T16:46:25.768Z,84.00
2023-02-23T16:47:25.643Z,80.00
2023-02-23T16:48:25.794Z,72.00
2023-02-23T16:49:25.802Z,64.00
2023-02-23T16:50:26.140Z,56.00
2023-02-23T16:51:25.788Z,44.00
2023-02-23T16:52:25.658Z,40.00
2023-02-23T16:53:25.543Z,32.00
2023-02-23T16:54:25.619Z,32.00
2023-02-23T16:55:30.610Z,28.00
2023-02-23T16:56:25.518Z,28.00
2023-02-23T16:57:25.530Z,32.00
2023-02-23T16:58:25.507Z,28.00
2023-02-23T16:59:25.467Z,24.00
2023-02-23T17:00:25.533Z,20.00
2023-02-23T17:01:25.477Z,20.00
2023-02-23T17:02:25.466Z,12.00
2023-02-23T17:03:25.418Z,12.00
2023-02-23T17:04:25.446Z,12.00
2023-02-23T17:05:25.409Z,16.00
2023-02-23T17:06:30.428Z,12.00
2023-02-23T17:07:25.382Z,8.00
2023-02-23T17:08:25.360Z,8.00
2023-02-23T17:09:25.379Z,8.00
2023-02-23T17:10:25.397Z,4.00
2023-02-23T17:11:25.397Z,4.00
2023-02-23T17:12:25.351Z,4.00
2023-02-23T17:13:25.348Z,4.00
2023-02-23T17:14:25.482Z,4.00
2023-02-23T17:15:25.322Z,4.00